sensor_id;sensor_type;location;lat;lon;timestamp;pressure;altitude;pressure_sealevel;temperature;humidity
75627;BME280;67372;49.404;11.034;2024-02-26T00:14:53;96501.44;;;2.12;77.08
75627;BME280;67372;49.404;11.034;2024-02-26T00:17:20;96503.06;;;2.13;76.98
75627;BME280;67372;49.404;11.034;2024-02-26T00:22:27;96501.03;;;2.09;77.22
75627;BME280;67372;49.404;11.034;2024-02-26T00:30:17;96491.34;;;2.03;77.06
75627;BME280;67372;49.404;11.034;2024-02-26T00:38:00;96480.44;;;1.99;76.70
75627;BME280;67372;49.404;11.034;2024-02-26T00:40:27;96483.06;;;1.99;76.71
75627;BME280;67372;49.404;11.034;2024-02-26T00:53:26;96474.78;;;1.82;76.78
75627;BME280;67372;49.404;11.034;2024-02-26T00:58:27;96487.94;;;1.76;77.46
75627;BME280;67372;49.404;11.034;2024-02-26T01:00:54;96488.13;;;1.74;77.24
75627;BME280;67372;49.404;11.034;2024-02-26T01:03:20;96485.91;;;1.71;76.91
75627;BME280;67372;49.404;11.034;2024-02-26T01:05:47;96485.13;;;1.71;77.04
75627;BME280;67372;49.404;11.034;2024-02-26T01:08:13;96485.72;;;1.66;77.25
75627;BME280;67372;49.404;11.034;2024-02-26T01:21:27;96487.94;;;1.49;77.52
75627;BME280;67372;49.404;11.034;2024-02-26T01:48:47;96464.69;;;1.40;79.64
75627;BME280;67372;49.404;11.034;2024-02-26T02:01:56;96459.03;;;1.56;79.44
75627;BME280;67372;49.404;11.034;2024-02-26T02:04:24;96466.50;;;1.59;79.47
75627;BME280;67372;49.404;11.034;2024-02-26T02:06:51;96455.59;;;1.62;78.99
75627;BME280;67372;49.404;11.034;2024-02-26T02:09:18;96459.44;;;1.66;78.78
75627;BME280;67372;49.404;11.034;2024-02-26T02:11:45;96464.50;;;1.68;79.31
75627;BME280;67372;49.404;11.034;2024-02-26T02:14:12;96468.31;;;1.65;79.21
75627;BME280;67372;49.404;11.034;2024-02-26T04:43:17;96479.72;;;2.88;80.53
75627;BME280;67372;49.404;11.034;2024-02-26T04:56:31;96484.50;;;3.04;79.56
75627;BME280;67372;49.404;11.034;2024-02-26T04:58:57;96489.16;;;3.09;80.10
75627;BME280;67372;49.404;11.034;2024-02-26T07:15:31;96596.13;;;4.36;84.16
75627;BME280;67372;49.404;11.034;2024-02-26T07:17:58;96597.00;;;4.48;83.01
75627;BME280;67372;49.404;11.034;2024-02-26T07:20:24;96588.59;;;4.58;82.42
75627;BME280;67372;49.404;11.034;2024-02-26T07:22:51;96594.97;;;4.69;81.60
75627;BME280;67372;49.404;11.034;2024-02-26T07:25:17;96581.88;;;4.80;81.53
75627;BME280;67372;49.404;11.034;2024-02-26T07:27:43;96590.03;;;4.97;81.33
75627;BME280;67372;49.404;11.034;2024-02-26T07:30:10;96580.22;;;5.16;80.95
75627;BME280;67372;49.404;11.034;2024-02-26T07:32:37;96585.94;;;5.31;79.94
75627;BME280;67372;49.404;11.034;2024-02-26T07:35:04;96583.78;;;5.40;79.40
75627;BME280;67372;49.404;11.034;2024-02-26T07:37:30;96576.50;;;5.53;79.31
75627;BME280;67372;49.404;11.034;2024-02-26T07:39:57;96572.50;;;5.63;78.33
75627;BME280;67372;49.404;11.034;2024-02-26T07:42:23;96573.94;;;5.77;78.12
75627;BME280;67372;49.404;11.034;2024-02-26T07:44:50;96572.72;;;5.91;77.83
75627;BME280;67372;49.404;11.034;2024-02-26T07:47:17;96564.59;;;6.04;75.88
75627;BME280;67372;49.404;11.034;2024-02-26T07:49:44;96567.38;;;6.21;77.07
75627;BME280;67372;49.404;11.034;2024-02-26T07:52:10;96574.53;;;6.44;77.56
75627;BME280;67372;49.404;11.034;2024-02-26T07:54:37;96585.91;;;6.68;76.38
75627;BME280;67372;49.404;11.034;2024-02-26T07:57:03;96593.03;;;6.91;75.89
75627;BME280;67372;49.404;11.034;2024-02-26T07:59:30;96597.16;;;7.10;75.22
75627;BME280;67372;49.404;11.034;2024-02-26T08:01:56;96600.22;;;7.30;74.68
75627;BME280;67372;49.404;11.034;2024-02-26T08:04:24;96610.09;;;7.47;72.96
75627;BME280;67372;49.404;11.034;2024-02-26T08:06:51;96611.91;;;7.58;72.90
75627;BME280;67372;49.404;11.034;2024-02-26T08:09:18;96615.47;;;7.63;72.42
75627;BME280;67372;49.404;11.034;2024-02-26T08:11:44;96618.06;;;7.75;72.36
75627;BME280;67372;49.404;11.034;2024-02-26T08:14:10;96621.03;;;7.79;70.79
75627;BME280;67372;49.404;11.034;2024-02-26T08:16:37;96619.97;;;7.80;70.90
75627;BME280;67372;49.404;11.034;2024-02-26T08:19:03;96624.59;;;7.84;70.80
75627;BME280;67372;49.404;11.034;2024-02-26T08:21:30;96629.19;;;7.89;71.50
75627;BME280;67372;49.404;11.034;2024-02-26T08:23:56;96639.34;;;7.92;71.35
75627;BME280;67372;49.404;11.034;2024-02-26T08:26:22;96627.91;;;7.91;71.33
75627;BME280;67372;49.404;11.034;2024-02-26T08:28:49;96634.50;;;7.89;70.67
75627;BME280;67372;49.404;11.034;2024-02-26T08:31:15;96633.69;;;7.88;70.87
75627;BME280;67372;49.404;11.034;2024-02-26T08:33:41;96637.41;;;7.87;70.87
75627;BME280;67372;49.404;11.034;2024-02-26T08:36:08;96634.50;;;7.89;70.30
75627;BME280;67372;49.404;11.034;2024-02-26T08:38:35;96642.47;;;7.89;70.75
75627;BME280;67372;49.404;11.034;2024-02-26T08:41:02;96639.09;;;7.93;70.39
75627;BME280;67372;49.404;11.034;2024-02-26T08:43:28;96634.91;;;7.97;70.19
75627;BME280;67372;49.404;11.034;2024-02-26T08:45:56;96639.06;;;8.05;69.42
75627;BME280;67372;49.404;11.034;2024-02-26T08:48:22;96637.53;;;8.09;67.22
75627;BME280;67372;49.404;11.034;2024-02-26T08:50:49;96628.75;;;8.09;67.11
75627;BME280;67372;49.404;11.034;2024-02-26T08:53:15;96633.91;;;8.15;67.89
75627;BME280;67372;49.404;11.034;2024-02-26T08:55:49;96632.94;;;8.21;67.06
75627;BME280;67372;49.404;11.034;2024-02-26T08:58:16;96627.94;;;8.25;67.44
75627;BME280;67372;49.404;11.034;2024-02-26T09:00:42;96627.91;;;8.37;67.35
75627;BME280;67372;49.404;11.034;2024-02-26T09:03:08;96627.44;;;8.56;67.97
75627;BME280;67372;49.404;11.034;2024-02-26T09:05:35;96619.78;;;8.77;67.26
75627;BME280;67372;49.404;11.034;2024-02-26T09:08:01;96621.03;;;8.91;62.98
75627;BME280;67372;49.404;11.034;2024-02-26T09:10:28;96616.28;;;8.93;63.00
75627;BME280;67372;49.404;11.034;2024-02-26T09:12:54;96617.66;;;9.17;64.16
75627;BME280;67372;49.404;11.034;2024-02-26T09:15:20;96600.16;;;9.21;58.38
75627;BME280;67372;49.404;11.034;2024-02-26T09:17:47;96609.19;;;9.42;61.34
75627;BME280;67372;49.404;11.034;2024-02-26T09:20:14;96606.22;;;9.61;60.57
75627;BME280;67372;49.404;11.034;2024-02-26T09:22:41;96605.19;;;9.89;62.11
75627;BME280;67372;49.404;11.034;2024-02-26T09:25:07;96608.28;;;10.07;59.38
75627;BME280;67372;49.404;11.034;2024-02-26T09:27:34;96599.47;;;10.29;59.72
75627;BME280;67372;49.404;11.034;2024-02-26T09:30:00;96601.78;;;10.52;59.47
75627;BME280;67372;49.404;11.034;2024-02-26T09:32:27;96591.03;;;10.79;58.78
75627;BME280;67372;49.404;11.034;2024-02-26T09:34:53;96592.28;;;10.66;55.75
75627;BME280;67372;49.404;11.034;2024-02-26T09:37:19;96587.53;;;10.73;55.56
75627;BME280;67372;49.404;11.034;2024-02-26T09:39:47;96568.31;;;10.71;55.02
75627;BME280;67372;49.404;11.034;2024-02-26T09:42:17;96552.28;;;10.29;52.21
75627;BME280;67372;49.404;11.034;2024-02-26T09:44:44;96547.34;;;10.16;53.47
75627;BME280;67372;49.404;11.034;2024-02-26T09:47:14;96567.75;;;10.32;55.42
75627;BME280;67372;49.404;11.034;2024-02-26T09:49:42;96574.75;;;10.38;55.39
75627;BME280;67372;49.404;11.034;2024-02-26T09:52:08;96586.31;;;10.54;54.73
75627;BME280;67372;49.404;11.034;2024-02-26T09:54:35;96585.56;;;10.59;54.51
75627;BME280;67372;49.404;11.034;2024-02-26T09:57:03;96593.09;;;10.67;53.23
75627;BME280;67372;49.404;11.034;2024-02-26T09:59:38;96593.16;;;10.77;51.76
75627;BME280;67372;49.404;11.034;2024-02-26T10:02:11;96596.88;;;10.76;53.07
75627;BME280;67372;49.404;11.034;2024-02-26T10:04:39;96595.31;;;10.80;54.24
75627;BME280;67372;49.404;11.034;2024-02-26T10:07:10;96607.56;;;10.81;53.39
75627;BME280;67372;49.404;11.034;2024-02-26T10:09:36;96606.06;;;10.90;54.76
75627;BME280;67372;49.404;11.034;2024-02-26T10:12:04;96605.81;;;10.97;51.92
75627;BME280;67372;49.404;11.034;2024-02-26T10:14:31;96612.84;;;11.13;54.26
75627;BME280;67372;49.404;11.034;2024-02-26T10:16:58;96610.50;;;11.27;53.78
75627;BME280;67372;49.404;11.034;2024-02-26T10:19:29;96611.59;;;11.31;51.71
75627;BME280;67372;49.404;11.034;2024-02-26T10:21:56;96616.44;;;11.39;52.85
75627;BME280;67372;49.404;11.034;2024-02-26T10:24:23;96618.31;;;11.38;50.54
75627;BME280;67372;49.404;11.034;2024-02-26T10:26:50;96616.41;;;11.34;52.31
75627;BME280;67372;49.404;11.034;2024-02-26T10:29:18;96611.84;;;11.34;50.13
75627;BME280;67372;49.404;11.034;2024-02-26T10:31:44;96618.59;;;11.42;52.66
75627;BME280;67372;49.404;11.034;2024-02-26T10:34:11;96619.16;;;11.54;52.09
75627;BME280;67372;49.404;11.034;2024-02-26T10:36:38;96621.53;;;11.46;51.67
75627;BME280;67372;49.404;11.034;2024-02-26T10:39:17;96631.50;;;11.65;52.18
75627;BME280;67372;49.404;11.034;2024-02-26T10:41:44;96629.91;;;11.64;50.31
75627;BME280;67372;49.404;11.034;2024-02-26T10:44:12;96632.56;;;11.64;50.73
75627;BME280;67372;49.404;11.034;2024-02-26T10:46:48;96628.03;;;11.65;49.31
75627;BME280;67372;49.404;11.034;2024-02-26T10:49:15;96624.56;;;11.69;50.00
75627;BME280;67372;49.404;11.034;2024-02-26T10:51:44;96632.06;;;11.78;49.07
75627;BME280;67372;49.404;11.034;2024-02-26T10:54:15;96633.13;;;11.77;47.47
75627;BME280;67372;49.404;11.034;2024-02-26T10:56:42;96635.03;;;11.81;49.51
75627;BME280;67372;49.404;11.034;2024-02-26T10:59:09;96642.28;;;11.86;49.96
75627;BME280;67372;49.404;11.034;2024-02-26T11:01:36;96639.63;;;11.96;48.54
75627;BME280;67372;49.404;11.034;2024-02-26T11:04:02;96637.28;;;12.20;50.10
75627;BME280;67372;49.404;11.034;2024-02-26T11:06:29;96640.25;;;12.34;48.94
75627;BME280;67372;49.404;11.034;2024-02-26T11:08:57;96645.59;;;12.49;49.10
75627;BME280;67372;49.404;11.034;2024-02-26T11:11:25;96643.72;;;12.44;47.19
75627;BME280;67372;49.404;11.034;2024-02-26T11:13:53;96649.59;;;12.46;48.44
75627;BME280;67372;49.404;11.034;2024-02-26T11:16:23;96639.44;;;12.64;48.63
75627;BME280;67372;49.404;11.034;2024-02-26T11:18:51;96637.84;;;12.78;46.56
75627;BME280;67372;49.404;11.034;2024-02-26T11:21:19;96623.94;;;12.71;44.41
75627;BME280;67372;49.404;11.034;2024-02-26T11:23:46;96626.06;;;12.74;47.58
75627;BME280;67372;49.404;11.034;2024-02-26T11:26:14;96636.22;;;12.92;47.86
75627;BME280;67372;49.404;11.034;2024-02-26T11:28:43;96636.47;;;13.01;47.65
75627;BME280;67372;49.404;11.034;2024-02-26T11:31:12;96625.78;;;12.96;45.13
75627;BME280;67372;49.404;11.034;2024-02-26T11:33:38;96618.81;;;12.95;46.81
75627;BME280;67372;49.404;11.034;2024-02-26T11:36:11;96625.25;;;12.88;44.95
75627;BME280;67372;49.404;11.034;2024-02-26T11:38:39;96633.03;;;12.80;46.25
75627;BME280;67372;49.404;11.034;2024-02-26T11:41:06;96640.53;;;12.63;44.52
75627;BME280;67372;49.404;11.034;2024-02-26T11:43:51;96638.38;;;12.49;45.15
75627;BME280;67372;49.404;11.034;2024-02-26T11:46:28;96644.78;;;12.53;46.00
75627;BME280;67372;49.404;11.034;2024-02-26T11:49:02;96648.25;;;12.49;45.62
75627;BME280;67372;49.404;11.034;2024-02-26T11:51:34;96634.09;;;12.69;47.60
75627;BME280;67372;49.404;11.034;2024-02-26T11:54:01;96634.09;;;12.84;47.44
75627;BME280;67372;49.404;11.034;2024-02-26T11:56:27;96622.81;;;12.97;47.48
75627;BME280;67372;49.404;11.034;2024-02-26T11:59:10;96628.16;;;12.97;44.62
75627;BME280;67372;49.404;11.034;2024-02-26T12:01:41;96622.84;;;12.92;46.54
75627;BME280;67372;49.404;11.034;2024-02-26T12:04:28;96623.66;;;12.77;44.84
75627;BME280;67372;49.404;11.034;2024-02-26T12:06:57;96614.00;;;12.91;46.17
75627;BME280;67372;49.404;11.034;2024-02-26T12:09:37;96618.84;;;12.84;44.82
75627;BME280;67372;49.404;11.034;2024-02-26T12:12:09;96617.22;;;12.88;45.38
75627;BME280;67372;49.404;11.034;2024-02-26T12:14:40;96631.09;;;13.11;46.13
75627;BME280;67372;49.404;11.034;2024-02-26T12:17:25;96619.59;;;13.26;45.22
75627;BME280;67372;49.404;11.034;2024-02-26T12:19:51;96620.34;;;13.36;45.16
75627;BME280;67372;49.404;11.034;2024-02-26T12:22:18;96620.84;;;13.43;45.99
75627;BME280;67372;49.404;11.034;2024-02-26T12:24:45;96617.91;;;13.45;44.78
75627;BME280;67372;49.404;11.034;2024-02-26T12:27:12;96613.94;;;13.32;42.74
75627;BME280;67372;49.404;11.034;2024-02-26T12:29:39;96621.72;;;13.13;43.77
75627;BME280;67372;49.404;11.034;2024-02-26T12:32:06;96626.28;;;13.23;44.85
75627;BME280;67372;49.404;11.034;2024-02-26T12:34:33;96624.16;;;13.10;44.14
75627;BME280;67372;49.404;11.034;2024-02-26T12:37:00;96625.22;;;13.14;45.13
75627;BME280;67372;49.404;11.034;2024-02-26T12:39:27;96619.84;;;13.14;45.05
75627;BME280;67372;49.404;11.034;2024-02-26T12:41:55;96625.78;;;12.96;44.39
75627;BME280;67372;49.404;11.034;2024-02-26T12:44:25;96616.38;;;13.08;45.84
75627;BME280;67372;49.404;11.034;2024-02-26T12:47:02;96623.09;;;13.06;43.78
75627;BME280;67372;49.404;11.034;2024-02-26T12:49:30;96615.81;;;13.16;44.05
75627;BME280;67372;49.404;11.034;2024-02-26T12:51:57;96624.38;;;13.39;45.40
75627;BME280;67372;49.404;11.034;2024-02-26T12:54:23;96627.53;;;13.56;45.15
75627;BME280;67372;49.404;11.034;2024-02-26T12:56:50;96626.63;;;13.71;45.15
75627;BME280;67372;49.404;11.034;2024-02-26T12:59:16;96634.16;;;13.69;43.78
75627;BME280;67372;49.404;11.034;2024-02-26T13:01:42;96635.25;;;13.63;42.57
75627;BME280;67372;49.404;11.034;2024-02-26T13:04:09;96630.75;;;13.48;42.61
75627;BME280;67372;49.404;11.034;2024-02-26T13:06:36;96639.59;;;13.43;43.63
75627;BME280;67372;49.404;11.034;2024-02-26T13:09:02;96635.03;;;13.54;43.75
75627;BME280;67372;49.404;11.034;2024-02-26T13:11:29;96632.63;;;13.47;42.27
75627;BME280;67372;49.404;11.034;2024-02-26T13:13:56;96644.69;;;13.55;43.24
75627;BME280;67372;49.404;11.034;2024-02-26T13:16:24;96641.72;;;13.57;42.68
75627;BME280;67372;49.404;11.034;2024-02-26T13:18:51;96637.94;;;13.63;41.82
75627;BME280;67372;49.404;11.034;2024-02-26T13:21:18;96639.06;;;13.46;42.65
75627;BME280;67372;49.404;11.034;2024-02-26T13:23:48;96648.16;;;13.56;43.39
75627;BME280;67372;49.404;11.034;2024-02-26T13:26:15;96648.47;;;13.49;40.67
75627;BME280;67372;49.404;11.034;2024-02-26T13:28:42;96654.63;;;13.49;42.79
75627;BME280;67372;49.404;11.034;2024-02-26T13:31:08;96645.47;;;13.56;43.08
75627;BME280;67372;49.404;11.034;2024-02-26T13:33:35;96650.59;;;13.42;41.57
75627;BME280;67372;49.404;11.034;2024-02-26T13:36:02;96654.91;;;13.33;40.98
75627;BME280;67372;49.404;11.034;2024-02-26T13:38:29;96651.66;;;13.41;42.30
75627;BME280;67372;49.404;11.034;2024-02-26T13:40:55;96649.53;;;13.43;42.59
75627;BME280;67372;49.404;11.034;2024-02-26T13:43:22;96650.66;;;13.27;41.06
75627;BME280;67372;49.404;11.034;2024-02-26T13:45:48;96659.75;;;13.15;40.51
75627;BME280;67372;49.404;11.034;2024-02-26T13:48:15;96658.44;;;13.03;41.22
75627;BME280;67372;49.404;11.034;2024-02-26T13:50:42;96667.78;;;13.00;41.39
75627;BME280;67372;49.404;11.034;2024-02-26T13:53:09;96653.34;;;12.96;39.78
75627;BME280;67372;49.404;11.034;2024-02-26T13:55:35;96658.97;;;12.95;41.11
75627;BME280;67372;49.404;11.034;2024-02-26T13:58:02;96657.06;;;13.00;40.76
75627;BME280;67372;49.404;11.034;2024-02-26T14:00:31;96660.84;;;13.04;40.28
75627;BME280;67372;49.404;11.034;2024-02-26T14:02:59;96662.44;;;13.10;41.17
75627;BME280;67372;49.404;11.034;2024-02-26T14:05:26;96664.84;;;13.22;40.44
75627;BME280;67372;49.404;11.034;2024-02-26T14:07:52;96672.06;;;13.32;41.73
75627;BME280;67372;49.404;11.034;2024-02-26T14:10:19;96670.44;;;13.41;40.63
75627;BME280;67372;49.404;11.034;2024-02-26T14:12:46;96673.59;;;13.48;41.47
75627;BME280;67372;49.404;11.034;2024-02-26T14:15:12;96680.84;;;13.47;41.76
75627;BME280;67372;49.404;11.034;2024-02-26T14:17:39;96672.00;;;13.47;41.48
75627;BME280;67372;49.404;11.034;2024-02-26T14:20:06;96684.59;;;13.46;42.09
75627;BME280;67372;49.404;11.034;2024-02-26T14:22:32;96684.31;;;13.48;42.46
75627;BME280;67372;49.404;11.034;2024-02-26T14:24:58;96687.03;;;13.43;41.18
75627;BME280;67372;49.404;11.034;2024-02-26T14:27:25;96685.69;;;13.40;40.88
75627;BME280;67372;49.404;11.034;2024-02-26T14:29:51;96683.56;;;13.37;41.41
75627;BME280;67372;49.404;11.034;2024-02-26T14:32:18;96687.56;;;13.40;41.84
75627;BME280;67372;49.404;11.034;2024-02-26T14:34:44;96684.63;;;13.41;41.87
75627;BME280;67372;49.404;11.034;2024-02-26T14:37:11;96698.84;;;13.32;39.89
75627;BME280;67372;49.404;11.034;2024-02-26T14:39:37;96698.31;;;13.30;41.13
75627;BME280;67372;49.404;11.034;2024-02-26T14:42:04;96696.94;;;13.17;41.36
75627;BME280;67372;49.404;11.034;2024-02-26T14:44:30;96700.44;;;13.23;42.79
75627;BME280;67372;49.404;11.034;2024-02-26T14:46:56;96710.34;;;13.12;40.33
75627;BME280;67372;49.404;11.034;2024-02-26T14:49:23;96714.09;;;13.11;41.95
75627;BME280;67372;49.404;11.034;2024-02-26T14:51:49;96712.22;;;13.11;42.43
75627;BME280;67372;49.404;11.034;2024-02-26T14:54:16;96711.41;;;13.01;42.47
75627;BME280;67372;49.404;11.034;2024-02-26T14:56:42;96713.28;;;12.95;42.38
75627;BME280;67372;49.404;11.034;2024-02-26T14:59:09;96717.56;;;12.96;42.84
75627;BME280;67372;49.404;11.034;2024-02-26T15:01:35;96718.94;;;12.78;42.25
75627;BME280;67372;49.404;11.034;2024-02-26T15:04:01;96718.09;;;12.73;42.88
75627;BME280;67372;49.404;11.034;2024-02-26T15:06:28;96721.31;;;12.70;43.36
75627;BME280;67372;49.404;11.034;2024-02-26T15:08:55;96709.50;;;12.50;42.81
75627;BME280;67372;49.404;11.034;2024-02-26T15:11:22;96719.41;;;12.50;43.26
75627;BME280;67372;49.404;11.034;2024-02-26T15:13:48;96719.69;;;12.48;43.41
75627;BME280;67372;49.404;11.034;2024-02-26T15:16:18;96728.22;;;12.40;42.89
75627;BME280;67372;49.404;11.034;2024-02-26T15:18:44;96724.22;;;12.33;43.68
75627;BME280;67372;49.404;11.034;2024-02-26T15:21:11;96727.38;;;12.24;43.92
75627;BME280;67372;49.404;11.034;2024-02-26T15:23:37;96728.44;;;12.18;43.94
75627;BME280;67372;49.404;11.034;2024-02-26T15:26:03;96729.78;;;12.16;44.66
75627;BME280;67372;49.404;11.034;2024-02-26T15:28:30;96734.56;;;12.14;44.63
75627;BME280;67372;49.404;11.034;2024-02-26T15:30:56;96734.84;;;12.12;44.91
75627;BME280;67372;49.404;11.034;2024-02-26T15:33:23;96736.69;;;12.07;44.93
75627;BME280;67372;49.404;11.034;2024-02-26T15:35:50;96740.94;;;12.03;45.18
75627;BME280;67372;49.404;11.034;2024-02-26T15:38:17;96744.41;;;11.98;45.80
75627;BME280;67372;49.404;11.034;2024-02-26T15:40:43;96746.50;;;11.86;46.08
75627;BME280;67372;49.404;11.034;2024-02-26T15:43:09;96753.66;;;11.80;46.17
75627;BME280;67372;49.404;11.034;2024-02-26T15:45:40;96752.25;;;11.73;46.57
75627;BME280;67372;49.404;11.034;2024-02-26T15:48:07;96754.91;;;11.67;46.53
75627;BME280;67372;49.404;11.034;2024-02-26T15:50:33;96757.81;;;11.61;47.01
75627;BME280;67372;49.404;11.034;2024-02-26T15:53:00;96763.41;;;11.59;46.96
75627;BME280;67372;49.404;11.034;2024-02-26T15:55:26;96760.97;;;11.53;46.90
75627;BME280;67372;49.404;11.034;2024-02-26T15:57:52;96764.41;;;11.48;47.57
75627;BME280;67372;49.404;11.034;2024-02-26T16:00:19;96774.81;;;11.50;47.69
75627;BME280;67372;49.404;11.034;2024-02-26T16:02:47;96778.81;;;11.47;47.44
75627;BME280;67372;49.404;11.034;2024-02-26T16:05:14;96789.75;;;11.46;48.04
75627;BME280;67372;49.404;11.034;2024-02-26T16:07:44;96793.75;;;11.43;47.95
75627;BME280;67372;49.404;11.034;2024-02-26T16:10:12;96794.28;;;11.40;48.06
75627;BME280;67372;49.404;11.034;2024-02-26T16:12:43;96795.00;;;11.35;48.11
75627;BME280;67372;49.404;11.034;2024-02-26T16:15:10;96791.22;;;11.26;48.47
75627;BME280;67372;49.404;11.034;2024-02-26T16:17:42;96802.66;;;11.22;47.94
75627;BME280;67372;49.404;11.034;2024-02-26T16:20:09;96802.63;;;11.17;48.61
75627;BME280;67372;49.404;11.034;2024-02-26T16:22:36;96806.34;;;11.16;49.03
75627;BME280;67372;49.404;11.034;2024-02-26T16:25:03;96804.19;;;11.13;48.76
75627;BME280;67372;49.404;11.034;2024-02-26T16:27:29;96803.63;;;11.11;49.31
75627;BME280;67372;49.404;11.034;2024-02-26T16:29:56;96800.66;;;11.07;49.04
75627;BME280;67372;49.404;11.034;2024-02-26T16:32:22;96799.56;;;11.03;49.18
75627;BME280;67372;49.404;11.034;2024-02-26T16:34:49;96808.38;;;11.03;49.39
75627;BME280;67372;49.404;11.034;2024-02-26T16:37:17;96807.28;;;10.99;49.31
75627;BME280;67372;49.404;11.034;2024-02-26T16:39:43;96819.25;;;10.97;49.80
75627;BME280;67372;49.404;11.034;2024-02-26T16:42:10;96812.56;;;10.94;50.03
75627;BME280;67372;49.404;11.034;2024-02-26T16:44:38;96827.78;;;10.94;50.27
75627;BME280;67372;49.404;11.034;2024-02-26T16:47:05;96824.81;;;10.90;50.20
75627;BME280;67372;49.404;11.034;2024-02-26T16:49:32;96827.66;;;10.84;50.35
75627;BME280;67372;49.404;11.034;2024-02-26T16:51:58;96822.03;;;10.80;51.63
75627;BME280;67372;49.404;11.034;2024-02-26T16:54:25;96827.59;;;10.79;52.15
75627;BME280;67372;49.404;11.034;2024-02-26T16:56:51;96836.94;;;10.76;52.13
75627;BME280;67372;49.404;11.034;2024-02-26T16:59:18;96836.06;;;10.70;52.88
75627;BME280;67372;49.404;11.034;2024-02-26T17:01:45;96833.91;;;10.67;52.55
75627;BME280;67372;49.404;11.034;2024-02-26T17:04:12;96843.78;;;10.67;52.11
75627;BME280;67372;49.404;11.034;2024-02-26T17:06:39;96849.03;;;10.62;53.21
75627;BME280;67372;49.404;11.034;2024-02-26T17:09:06;96851.59;;;10.52;53.66
75627;BME280;67372;49.404;11.034;2024-02-26T17:11:32;96855.19;;;10.40;53.75
75627;BME280;67372;49.404;11.034;2024-02-26T17:13:59;96861.50;;;10.34;54.63
75627;BME280;67372;49.404;11.034;2024-02-26T17:16:25;96857.47;;;10.32;54.39
75627;BME280;67372;49.404;11.034;2024-02-26T17:18:52;96852.84;;;10.22;55.84
75627;BME280;67372;49.404;11.034;2024-02-26T17:21:23;96855.56;;;10.10;55.96
75627;BME280;67372;49.404;11.034;2024-02-26T17:23:50;96863.75;;;10.04;57.21
75627;BME280;67372;49.404;11.034;2024-02-26T17:26:24;96863.28;;;9.90;58.46
75627;BME280;67372;49.404;11.034;2024-02-26T17:28:50;96868.41;;;9.75;58.62
75627;BME280;67372;49.404;11.034;2024-02-26T17:31:17;96862.97;;;9.70;59.17
75627;BME280;67372;49.404;11.034;2024-02-26T17:33:44;96877.28;;;9.64;59.64
75627;BME280;67372;49.404;11.034;2024-02-26T17:36:11;96880.91;;;9.58;60.29
75627;BME280;67372;49.404;11.034;2024-02-26T17:38:37;96887.22;;;9.51;60.70
75627;BME280;67372;49.404;11.034;2024-02-26T17:41:06;96883.50;;;9.52;59.70
75627;BME280;67372;49.404;11.034;2024-02-26T17:43:33;96881.41;;;9.54;60.43
75627;BME280;67372;49.404;11.034;2024-02-26T17:46:00;96881.56;;;9.48;60.83
75627;BME280;67372;49.404;11.034;2024-02-26T17:48:26;96885.97;;;9.42;60.95
75627;BME280;67372;49.404;11.034;2024-02-26T17:50:56;96900.00;;;9.38;61.12
75627;BME280;67372;49.404;11.034;2024-02-26T17:53:22;96898.00;;;9.28;62.39
75627;BME280;67372;49.404;11.034;2024-02-26T17:55:49;96908.06;;;9.26;61.79
75627;BME280;67372;49.404;11.034;2024-02-26T17:58:16;96911.22;;;9.23;61.95
75627;BME280;67372;49.404;11.034;2024-02-26T18:00:42;96905.31;;;9.21;63.16
75627;BME280;67372;49.404;11.034;2024-02-26T18:03:09;96908.59;;;9.11;62.62
75627;BME280;67372;49.404;11.034;2024-02-26T18:05:35;96916.97;;;9.03;63.58
75627;BME280;67372;49.404;11.034;2024-02-26T18:08:02;96913.28;;;9.04;63.04
75627;BME280;67372;49.404;11.034;2024-02-26T18:10:28;96926.41;;;9.11;62.17
75627;BME280;67372;49.404;11.034;2024-02-26T18:12:55;96928.34;;;9.15;62.03
75627;BME280;67372;49.404;11.034;2024-02-26T18:15:21;96928.50;;;9.09;63.48
75627;BME280;67372;49.404;11.034;2024-02-26T18:17:47;96924.72;;;9.05;62.30
75627;BME280;67372;49.404;11.034;2024-02-26T18:20:14;96934.22;;;9.01;64.20
75627;BME280;67372;49.404;11.034;2024-02-26T18:22:40;96930.31;;;8.91;63.85
75627;BME280;67372;49.404;11.034;2024-02-26T18:25:07;96937.47;;;8.91;63.50
75627;BME280;67372;49.404;11.034;2024-02-26T18:27:33;96948.78;;;8.98;62.15
75627;BME280;67372;49.404;11.034;2024-02-26T18:30:00;96945.22;;;8.92;63.39
75627;BME280;67372;49.404;11.034;2024-02-26T18:32:26;96945.38;;;8.86;63.12
75627;BME280;67372;49.404;11.034;2024-02-26T18:34:53;96955.44;;;8.84;62.65
75627;BME280;67372;49.404;11.034;2024-02-26T18:37:19;96958.91;;;8.84;62.81
75627;BME280;67372;49.404;11.034;2024-02-26T18:39:46;96963.16;;;8.85;62.79
75627;BME280;67372;49.404;11.034;2024-02-26T18:42:13;96970.69;;;8.88;61.89
75627;BME280;67372;49.404;11.034;2024-02-26T18:44:39;96970.34;;;8.85;62.65
75627;BME280;67372;49.404;11.034;2024-02-26T18:47:06;96969.31;;;8.86;61.99
75627;BME280;67372;49.404;11.034;2024-02-26T18:49:33;96976.22;;;8.87;61.35
75627;BME280;67372;49.404;11.034;2024-02-26T18:51:59;96976.59;;;8.79;61.12
75627;BME280;67372;49.404;11.034;2024-02-26T18:54:26;96983.41;;;8.75;61.85
75627;BME280;67372;49.404;11.034;2024-02-26T18:56:52;96985.88;;;8.76;60.88
75627;BME280;67372;49.404;11.034;2024-02-26T18:59:19;96986.31;;;8.73;60.98
75627;BME280;67372;49.404;11.034;2024-02-26T19:01:46;96994.84;;;8.75;61.14
75627;BME280;67372;49.404;11.034;2024-02-26T19:04:12;96995.00;;;8.69;61.40
75627;BME280;67372;49.404;11.034;2024-02-26T19:06:39;96990.16;;;8.66;60.81
75627;BME280;67372;49.404;11.034;2024-02-26T19:09:05;96992.47;;;8.62;61.21
75627;BME280;67372;49.404;11.034;2024-02-26T19:11:32;96995.94;;;8.63;60.98